Paso Robles Municipal Airport
KPRB : rendu visible

Aérodrome :











RETROUVEZ-NOUS SUR...

 
LOGIN :

S'inscrire | Disclaimer

   EN    FR    IT 

 









Légende :    VFR   VFR Marginal   IFR   IFR Intensif   IFR Très Intensif
Visi : 
Plafond : 
>= 8 km
>= 3000ft
5 à 8 km
1000 à 3000 ft
1500m à 5 km
500 à 1000 ft
800 à 1500m
200 à 500 ft
< 800m
< 200 ft
Symboles :   Orages  Brouillard  Fortes neiges  Fortes précipitations  Vent > 20 kt






- Altitude de l'aérodrome : 840 ft


KPRB - Paso Robles Municipal

DERNIER METAR :
  • 231653Z AUTO 33008KT 10SM OVC018 11/06 A3033 RMK AO2 SLP270 T01060056

METARs EXPIRÉS :
  • 231553Z AUTO 33007KT 10SM OVC016 09/06 A3030 RMK AO2 SLP262 T00940056
  • 231453Z AUTO 33008KT 10SM OVC017 09/06 A3028 RMK AO2 SLP253 T00940056 51024

TAF KPRB
Valide du 23 à 12h jusqu'au 24 à 12h UTC


231211Z 2312/2412 32006KT P6SM OVC017
FM231500 33008KT 6SM BR BKN012
FM232000 32012KT P6SM SCT017 SCT250
FM240700 33006KT 6SM BR SCT010
FM241000 VRB04KT 5SM BR BKN005



MET'MAP, la Météo Aéronautique d'un coup d'oeil ! - Copyright ORBIFLY Décembre 2007 - Disclaimer

ORBIFLY MET'MAP TEAM :

Programmation & Développement : Alexandra Zaïnal
Sur une idée originale de : Baudouin d'Aumeries
Assistance à la programmation : Marc-Olivier Méhu
Soutien technique & logistique : Manuel Goepfert

Contact : metmap@orbifly.com




SOURCES & CREDITS :

   NOAA       Earth
Advisory